createdAt,value
2023-01-29T00:05:26.063Z,-2.90
2023-01-29T00:12:27.615Z,-2.90
2023-01-29T00:19:28.060Z,-2.90
2023-01-29T00:26:28.378Z,-3.00
2023-01-29T00:33:29.480Z,-3.10
2023-01-29T00:40:49.515Z,-3.20
2023-01-29T00:47:49.783Z,-3.10
2023-01-29T00:54:51.104Z,-3.10
2023-01-29T01:02:10.229Z,-3.10
2023-01-29T01:09:29.728Z,-3.10
2023-01-29T01:16:30.343Z,-3.20
2023-01-29T01:23:30.727Z,-3.20
2023-01-29T01:30:31.102Z,-3.20
2023-01-29T01:37:32.406Z,-3.20
2023-01-29T01:44:58.827Z,-3.20
2023-01-29T01:52:01.027Z,-3.30
2023-01-29T01:59:01.346Z,-3.30
2023-01-29T02:06:20.375Z,-3.30
2023-01-29T02:13:21.555Z,-3.40
2023-01-29T02:20:26.188Z,-3.40
2023-01-29T02:27:59.035Z,-3.40
2023-01-29T02:35:31.905Z,-3.40
2023-01-29T02:42:46.910Z,-3.50
2023-01-29T02:49:57.598Z,-3.60
2023-01-29T02:57:10.218Z,-3.60
2023-01-29T03:04:15.178Z,-3.70
2023-01-29T03:11:17.417Z,-3.70
2023-01-29T03:18:18.724Z,-3.80
2023-01-29T03:25:41.585Z,-3.90
2023-01-29T03:32:46.171Z,-3.90
2023-01-29T03:39:46.541Z,-3.90
2023-01-29T03:46:56.123Z,-3.90
2023-01-29T03:54:13.182Z,-3.80
2023-01-29T04:01:19.352Z,-3.80
2023-01-29T04:08:28.822Z,-3.80
2023-01-29T04:15:38.049Z,-3.80
2023-01-29T04:22:40.342Z,-3.80
2023-01-29T04:30:00.153Z,-3.80
2023-01-29T04:37:16.672Z,-3.80
2023-01-29T04:44:20.532Z,-3.80
2023-01-29T04:51:46.548Z,-3.80
2023-01-29T04:58:59.417Z,-3.80
2023-01-29T05:06:01.862Z,-3.80
2023-01-29T05:13:08.698Z,-3.80
2023-01-29T05:20:11.556Z,-3.80
2023-01-29T05:27:38.065Z,-3.80
2023-01-29T05:34:38.394Z,-3.80
2023-01-29T05:41:39.048Z,-3.80
2023-01-29T05:48:39.205Z,-3.80
2023-01-29T05:55:39.604Z,-3.80
2023-01-29T06:02:40.367Z,-3.70
2023-01-29T06:09:40.385Z,-3.70
2023-01-29T06:16:40.702Z,-3.70
2023-01-29T06:23:41.092Z,-3.70
2023-01-29T06:30:41.503Z,-3.70
2023-01-29T06:37:41.905Z,-3.70
2023-01-29T06:44:42.552Z,-3.70
2023-01-29T06:51:42.914Z,-3.70
2023-01-29T06:58:43.597Z,-3.70
2023-01-29T07:05:49.712Z,-3.70
2023-01-29T07:12:49.863Z,-3.60
2023-01-29T07:19:50.371Z,-3.60
2023-01-29T07:26:50.887Z,-3.60
2023-01-29T07:33:51.391Z,-3.50
2023-01-29T07:40:52.955Z,-3.30
2023-01-29T07:47:55.156Z,-3.20
2023-01-29T07:54:55.495Z,-3.10
2023-01-29T08:01:55.983Z,-3.00
2023-01-29T08:08:57.378Z,-2.90
2023-01-29T08:16:03.137Z,-2.80
2023-01-29T08:23:10.097Z,-2.60
2023-01-29T08:30:11.094Z,-2.50
2023-01-29T08:37:11.233Z,-2.40
2023-01-29T08:44:11.894Z,-2.30
2023-01-29T08:51:12.709Z,-2.10
2023-01-29T08:58:13.198Z,-1.80
2023-01-29T09:05:13.624Z,-1.70
2023-01-29T09:12:13.856Z,-1.60
2023-01-29T09:19:14.395Z,-1.60
2023-01-29T09:26:14.769Z,-1.50
2023-01-29T09:33:15.035Z,-1.50
2023-01-29T09:40:31.095Z,-1.40
2023-01-29T09:47:35.311Z,-1.30
2023-01-29T09:55:20.881Z,-1.20
2023-01-29T10:02:50.438Z,-1.10
2023-01-29T10:10:15.333Z,-1.00
2023-01-29T10:17:30.547Z,-0.70
2023-01-29T10:24:44.543Z,-0.60
2023-01-29T10:31:47.073Z,-0.30
2023-01-29T10:38:49.035Z,-0.30
2023-01-29T10:46:04.073Z,-0.20
2023-01-29T10:53:27.678Z,-0.10
2023-01-29T11:00:37.880Z,0.10
2023-01-29T11:07:38.238Z,0.20
2023-01-29T11:14:55.622Z,0.30
2023-01-29T11:21:57.075Z,0.40
2023-01-29T11:28:57.165Z,0.50
2023-01-29T11:35:59.081Z,0.60
2023-01-29T11:43:19.106Z,0.70
2023-01-29T11:50:24.241Z,0.70
2023-01-29T11:57:35.615Z,0.70
2023-01-29T12:04:39.611Z,0.70
2023-01-29T12:11:39.976Z,0.70
2023-01-29T12:18:44.756Z,0.80
2023-01-29T12:25:56.407Z,0.80
2023-01-29T12:33:29.363Z,0.90
2023-01-29T12:40:40.192Z,1.10
2023-01-29T12:47:57.541Z,1.10
2023-01-29T12:55:07.244Z,1.20
2023-01-29T13:02:35.262Z,1.30
2023-01-29T13:09:39.010Z,1.50
2023-01-29T13:16:43.661Z,1.60
2023-01-29T13:23:50.862Z,1.70
2023-01-29T13:31:31.421Z,1.70
2023-01-29T13:38:33.620Z,1.80
2023-01-29T13:45:36.134Z,1.80
2023-01-29T13:52:46.153Z,1.90
2023-01-29T13:59:55.246Z,2.00
2023-01-29T14:06:57.448Z,2.00
2023-01-29T14:13:57.582Z,2.10
2023-01-29T14:21:06.066Z,2.20
2023-01-29T14:28:16.087Z,2.20
2023-01-29T14:35:23.917Z,2.30
2023-01-29T14:42:25.995Z,2.40
2023-01-29T14:49:52.549Z,2.40
2023-01-29T14:57:05.826Z,2.50
2023-01-29T15:04:13.137Z,2.50
2023-01-29T15:11:35.462Z,2.50
2023-01-29T15:18:39.947Z,2.50
2023-01-29T15:25:49.242Z,2.50
2023-01-29T15:32:49.725Z,2.60
2023-01-29T15:39:52.219Z,2.50
2023-01-29T15:46:56.138Z,2.50
2023-01-29T15:53:59.794Z,2.50
2023-01-29T16:01:01.167Z,2.60
2023-01-29T16:08:02.432Z,2.60
2023-01-29T16:15:04.567Z,2.70
2023-01-29T16:22:08.083Z,2.70
2023-01-29T16:29:11.239Z,2.60
2023-01-29T16:36:18.792Z,2.60
2023-01-29T16:43:19.323Z,2.60
2023-01-29T16:50:26.995Z,2.60
2023-01-29T16:57:33.508Z,2.70
2023-01-29T17:04:33.828Z,2.60
2023-01-29T17:11:39.838Z,2.60
2023-01-29T17:18:40.519Z,2.60
2023-01-29T17:25:40.946Z,2.60
2023-01-29T17:32:44.347Z,2.70
2023-01-29T17:39:52.992Z,2.60
2023-01-29T17:46:54.141Z,2.70
2023-01-29T17:53:54.455Z,2.70
2023-01-29T18:00:55.463Z,2.70
2023-01-29T18:07:56.083Z,2.70
2023-01-29T18:14:56.416Z,2.70
2023-01-29T18:21:57.176Z,2.70
2023-01-29T18:28:57.320Z,2.60
2023-01-29T18:35:58.352Z,2.60
2023-01-29T18:43:00.739Z,2.60
2023-01-29T18:50:00.850Z,2.60
2023-01-29T18:57:13.801Z,2.70
2023-01-29T19:04:21.798Z,2.60
2023-01-29T19:11:22.016Z,2.70
2023-01-29T19:18:22.324Z,2.60
2023-01-29T19:25:23.471Z,2.60
2023-01-29T19:32:24.111Z,2.60
2023-01-29T19:39:24.597Z,2.60
2023-01-29T19:46:24.872Z,2.60
2023-01-29T19:53:27.163Z,2.60
2023-01-29T20:00:27.349Z,2.60
2023-01-29T20:07:28.173Z,2.60
2023-01-29T20:14:28.314Z,2.60
2023-01-29T20:21:28.844Z,2.50
2023-01-29T20:28:29.371Z,2.50
2023-01-29T20:35:30.842Z,2.50
2023-01-29T20:42:31.295Z,2.50
2023-01-29T20:49:31.592Z,2.50
2023-01-29T20:56:41.657Z,2.50
2023-01-29T21:03:44.832Z,2.40
2023-01-29T21:10:45.668Z,2.40
2023-01-29T21:17:47.980Z,2.30
2023-01-29T21:24:48.350Z,2.30
2023-01-29T21:31:48.935Z,2.30
2023-01-29T21:38:49.315Z,2.40
2023-01-29T21:45:58.747Z,2.40
2023-01-29T21:52:58.990Z,2.50
2023-01-29T21:59:59.626Z,2.60
2023-01-29T22:07:00.057Z,2.70
2023-01-29T22:14:00.596Z,2.70
2023-01-29T22:21:04.327Z,2.80
2023-01-29T22:28:04.922Z,2.80
2023-01-29T22:35:06.298Z,2.80
2023-01-29T22:42:06.756Z,2.80
2023-01-29T22:49:07.116Z,2.80
2023-01-29T22:56:08.578Z,2.80
2023-01-29T23:03:08.832Z,2.80
2023-01-29T23:10:12.907Z,2.80
2023-01-29T23:17:13.240Z,2.90
2023-01-29T23:24:13.723Z,2.90
2023-01-29T23:31:14.278Z,3.00
2023-01-29T23:38:14.325Z,3.10
2023-01-29T23:45:14.668Z,3.20
2023-01-29T23:52:15.135Z,3.30
2023-01-29T23:59:15.845Z,3.50
